createdAt,value
2023-03-01T00:00:03.672Z,-2.06
2023-03-01T00:01:03.627Z,-2.09
2023-03-01T00:02:03.734Z,-2.12
2023-03-01T00:03:03.636Z,-2.10
2023-03-01T00:04:03.594Z,-2.12
2023-03-01T00:05:03.583Z,-2.09
2023-03-01T00:06:03.604Z,-2.10
2023-03-01T00:07:03.565Z,-2.13
2023-03-01T00:08:03.563Z,-2.13
2023-03-01T00:09:03.536Z,-2.10
2023-03-01T00:10:03.540Z,-2.09
2023-03-01T00:11:03.539Z,-2.08
2023-03-01T00:12:03.666Z,-2.05
2023-03-01T00:13:03.494Z,-2.05
2023-03-01T00:14:03.512Z,-2.06
2023-03-01T00:15:03.484Z,-2.09
2023-03-01T00:16:03.467Z,-2.09
2023-03-01T00:17:03.545Z,-2.10
2023-03-01T00:18:03.475Z,-2.15
2023-03-01T00:19:03.445Z,-2.18
2023-03-01T00:20:03.480Z,-2.24
2023-03-01T00:21:03.415Z,-2.29
2023-03-01T00:22:03.426Z,-2.34
2023-03-01T00:23:03.403Z,-2.35
2023-03-01T00:24:03.413Z,-2.42
2023-03-01T00:25:03.373Z,-2.45
2023-03-01T00:26:03.384Z,-2.48
2023-03-01T00:27:03.383Z,-2.50
2023-03-01T00:28:03.343Z,-2.53
2023-03-01T00:29:03.342Z,-2.56
2023-03-01T00:30:03.337Z,-2.58
2023-03-01T00:31:03.321Z,-2.64
2023-03-01T00:32:03.427Z,-2.66
2023-03-01T00:33:03.293Z,-2.67
2023-03-01T00:34:03.388Z,-2.70
2023-03-01T00:35:03.275Z,-2.71
2023-03-01T00:36:03.276Z,-2.67
2023-03-01T00:37:03.254Z,-2.63
2023-03-01T00:38:03.277Z,-2.61
2023-03-01T00:39:03.229Z,-2.58
2023-03-01T00:40:03.262Z,-2.55
2023-03-01T00:41:03.217Z,-2.58
2023-03-01T00:42:03.224Z,-2.61
2023-03-01T00:43:03.242Z,-2.64
2023-03-01T00:44:03.214Z,-2.68
2023-03-01T00:45:03.170Z,-2.68
2023-03-01T00:46:03.203Z,-2.66
2023-03-01T00:47:03.167Z,-2.67
2023-03-01T00:48:03.193Z,-2.61
2023-03-01T00:49:03.238Z,-2.55
2023-03-01T00:50:03.528Z,-2.53
2023-03-01T00:51:03.109Z,-2.53
2023-03-01T00:52:03.198Z,-2.50
2023-03-01T00:53:03.088Z,-2.49
2023-03-01T00:54:03.115Z,-2.50
2023-03-01T00:55:03.068Z,-2.48
2023-03-01T00:56:03.067Z,-2.48
2023-03-01T00:57:03.063Z,-2.48
2023-03-01T00:58:03.038Z,-2.49
2023-03-01T00:59:03.050Z,-2.52
2023-03-01T01:00:03.045Z,-2.50
2023-03-01T01:01:02.999Z,-2.53
2023-03-01T01:02:02.996Z,-2.56
2023-03-01T01:03:03.004Z,-2.53
2023-03-01T01:04:03.220Z,-2.53
2023-03-01T01:05:02.957Z,-2.53
2023-03-01T01:06:02.967Z,-2.53
2023-03-01T01:07:02.956Z,-2.52
2023-03-01T01:08:02.939Z,-2.52
2023-03-01T01:09:02.937Z,-2.50
2023-03-01T01:10:02.916Z,-2.53
2023-03-01T01:11:02.898Z,-2.52
2023-03-01T01:12:02.917Z,-2.52
2023-03-01T01:13:02.886Z,-2.50
2023-03-01T01:14:02.866Z,-2.53
2023-03-01T01:15:02.864Z,-2.49
2023-03-01T01:16:04.288Z,-2.49
2023-03-01T01:17:02.828Z,-2.50
2023-03-01T01:18:02.890Z,-2.50
2023-03-01T01:19:02.806Z,-2.50
2023-03-01T01:20:02.817Z,-2.52
2023-03-01T01:21:02.786Z,-2.52
2023-03-01T01:22:02.804Z,-2.52
2023-03-01T01:23:02.777Z,-2.55
2023-03-01T01:24:02.757Z,-2.55
2023-03-01T01:25:02.746Z,-2.60
2023-03-01T01:26:02.810Z,-2.55
2023-03-01T01:27:02.728Z,-2.56
2023-03-01T01:28:02.762Z,-2.56
2023-03-01T01:29:02.728Z,-2.53
2023-03-01T01:30:02.766Z,-2.56
2023-03-01T01:31:02.750Z,-2.56
2023-03-01T01:32:02.776Z,-2.58
2023-03-01T01:33:02.686Z,-2.56
2023-03-01T01:34:02.686Z,-2.61
2023-03-01T01:35:02.655Z,-2.63
2023-03-01T01:36:02.687Z,-2.64
2023-03-01T01:37:02.635Z,-2.63
2023-03-01T01:38:03.046Z,-2.66
2023-03-01T01:39:02.596Z,-2.68
2023-03-01T01:40:02.609Z,-2.68
2023-03-01T01:41:02.575Z,-2.73
2023-03-01T01:42:02.598Z,-2.73
2023-03-01T01:43:02.573Z,-2.77
2023-03-01T01:44:02.562Z,-2.79
2023-03-01T01:45:02.543Z,-2.81
2023-03-01T01:46:02.598Z,-2.84
2023-03-01T01:47:02.522Z,-2.86
2023-03-01T01:48:02.528Z,-2.84
2023-03-01T01:49:02.542Z,-2.84
2023-03-01T01:50:03.113Z,-2.78
2023-03-01T01:51:02.540Z,-2.78
2023-03-01T01:52:02.482Z,-2.78
2023-03-01T01:53:02.492Z,-2.79
2023-03-01T01:54:02.562Z,-2.77
2023-03-01T01:55:02.424Z,-2.73
2023-03-01T01:56:02.446Z,-2.70
2023-03-01T01:57:02.415Z,-2.67
2023-03-01T01:58:02.448Z,-2.66
2023-03-01T01:59:02.395Z,-2.63
2023-03-01T02:00:02.389Z,-2.64
2023-03-01T02:01:02.362Z,-2.63
2023-03-01T02:02:02.793Z,-2.63
2023-03-01T02:03:02.407Z,-2.67
2023-03-01T02:04:02.377Z,-2.71
2023-03-01T02:05:02.344Z,-2.74
2023-03-01T02:06:02.392Z,-2.77
2023-03-01T02:07:02.310Z,-2.77
2023-03-01T02:08:02.367Z,-2.81
2023-03-01T02:09:02.286Z,-2.82
2023-03-01T02:10:02.307Z,-2.82
2023-03-01T02:11:02.264Z,-2.88
2023-03-01T02:12:02.276Z,-2.91
2023-03-01T02:13:02.251Z,-2.91
2023-03-01T02:14:02.257Z,-2.94
2023-03-01T02:15:02.250Z,-2.97
2023-03-01T02:16:02.288Z,-3.03
2023-03-01T02:17:02.205Z,-3.02
2023-03-01T02:18:02.263Z,-3.05
2023-03-01T02:19:02.184Z,-3.07
2023-03-01T02:20:02.273Z,-3.07
2023-03-01T02:21:02.164Z,-3.10
2023-03-01T02:22:02.417Z,-3.12
2023-03-01T02:23:02.164Z,-3.12
2023-03-01T02:24:02.134Z,-3.10
2023-03-01T02:25:02.125Z,-3.12
2023-03-01T02:26:02.129Z,-3.15
2023-03-01T02:27:02.107Z,-3.10
2023-03-01T02:28:02.101Z,-3.17
2023-03-01T02:29:02.095Z,-3.17
2023-03-01T02:30:02.133Z,-3.20
2023-03-01T02:31:02.074Z,-3.21
2023-03-01T02:32:02.076Z,-3.23
2023-03-01T02:33:02.090Z,-3.24
2023-03-01T02:34:02.044Z,-3.20
2023-03-01T02:35:02.023Z,-3.20
2023-03-01T02:36:02.077Z,-3.20
2023-03-01T02:37:01.998Z,-3.18
2023-03-01T02:38:02.017Z,-3.15
2023-03-01T02:39:01.985Z,-3.14
2023-03-01T02:40:01.987Z,-3.10
2023-03-01T02:41:02.006Z,-3.12
2023-03-01T02:42:01.944Z,-3.15
2023-03-01T02:43:01.936Z,-3.18
2023-03-01T02:44:01.932Z,-3.21
2023-03-01T02:45:01.965Z,-3.23
2023-03-01T02:46:01.931Z,-3.25
2023-03-01T02:47:02.050Z,-3.28
2023-03-01T02:48:02.054Z,-3.27
2023-03-01T02:49:01.873Z,-3.28
2023-03-01T02:50:01.864Z,-3.33
2023-03-01T02:51:01.846Z,-3.35
2023-03-01T02:52:01.889Z,-3.35
2023-03-01T02:53:01.843Z,-3.33
2023-03-01T02:54:01.828Z,-3.31
2023-03-01T02:55:01.808Z,-3.31
2023-03-01T02:56:01.805Z,-3.35
2023-03-01T02:57:02.021Z,-3.39
2023-03-01T02:58:01.784Z,-3.43
2023-03-01T02:59:01.892Z,-3.48
2023-03-01T03:00:01.762Z,-3.49
2023-03-01T03:01:01.894Z,-3.53
2023-03-01T03:02:01.744Z,-3.53
2023-03-01T03:03:02.135Z,-3.54
2023-03-01T03:04:01.786Z,-3.57
2023-03-01T03:05:01.716Z,-3.57
2023-03-01T03:06:01.708Z,-3.54
2023-03-01T03:07:01.686Z,-3.54
2023-03-01T03:08:01.768Z,-3.54
2023-03-01T03:09:01.671Z,-3.56
2023-03-01T03:10:01.652Z,-3.60
2023-03-01T03:11:01.693Z,-3.66
2023-03-01T03:12:01.634Z,-3.67
2023-03-01T03:13:01.626Z,-3.64
2023-03-01T03:14:01.616Z,-3.63
2023-03-01T03:15:01.593Z,-3.64
2023-03-01T03:16:01.617Z,-3.63
2023-03-01T03:17:01.575Z,-3.66
2023-03-01T03:18:01.583Z,-3.71
2023-03-01T03:19:01.563Z,-3.72
2023-03-01T03:20:01.544Z,-3.72
2023-03-01T03:21:01.532Z,-3.75
2023-03-01T03:22:01.538Z,-3.78
2023-03-01T03:23:01.553Z,-3.83
2023-03-01T03:24:01.511Z,-3.90
2023-03-01T03:25:01.509Z,-3.90
2023-03-01T03:26:01.486Z,-3.91
2023-03-01T03:27:01.461Z,-3.93
2023-03-01T03:28:01.472Z,-3.94
2023-03-01T03:29:01.462Z,-3.93
2023-03-01T03:30:01.444Z,-3.88
2023-03-01T03:31:01.421Z,-3.82
2023-03-01T03:32:01.494Z,-3.79
2023-03-01T03:33:01.434Z,-3.75
2023-03-01T03:34:01.390Z,-3.71
2023-03-01T03:35:01.393Z,-3.75
2023-03-01T03:36:01.431Z,-3.75
2023-03-01T03:37:01.371Z,-3.76
2023-03-01T03:38:01.371Z,-3.79
2023-03-01T03:39:01.349Z,-3.82
2023-03-01T03:40:01.339Z,-3.83
2023-03-01T03:41:01.322Z,-3.82
2023-03-01T03:42:01.312Z,-3.82
2023-03-01T03:43:01.317Z,-3.85
2023-03-01T03:44:01.289Z,-3.90
2023-03-01T03:45:01.314Z,-3.90
2023-03-01T03:46:01.366Z,-3.96
2023-03-01T03:47:01.273Z,-3.99
2023-03-01T03:48:01.253Z,-4.01
2023-03-01T03:49:01.241Z,-4.06
2023-03-01T03:50:01.226Z,-4.11
2023-03-01T03:51:01.224Z,-4.14
2023-03-01T03:52:01.203Z,-4.18
2023-03-01T03:53:01.211Z,-4.18
2023-03-01T03:54:01.254Z,-4.15
2023-03-01T03:55:01.182Z,-4.17
2023-03-01T03:56:01.161Z,-4.15
2023-03-01T03:57:01.178Z,-4.12
2023-03-01T03:58:01.150Z,-4.14
2023-03-01T03:59:01.159Z,-4.17
2023-03-01T04:00:01.122Z,-4.18
2023-03-01T04:01:01.113Z,-4.20
2023-03-01T04:02:01.101Z,-4.11
2023-03-01T04:03:01.204Z,-4.01
2023-03-01T04:04:01.090Z,-4.01
2023-03-01T04:05:01.072Z,-3.99
2023-03-01T04:06:01.076Z,-3.97
2023-03-01T04:07:01.051Z,-3.94
2023-03-01T04:08:01.057Z,-3.91
2023-03-01T04:09:01.071Z,-3.90
2023-03-01T04:10:01.021Z,-3.90
2023-03-01T04:11:01.015Z,-3.90
2023-03-01T04:12:01.005Z,-3.90
2023-03-01T04:13:01.001Z,-3.88
2023-03-01T04:14:00.982Z,-3.88
2023-03-01T04:15:00.973Z,-3.88
2023-03-01T04:16:00.951Z,-3.90
2023-03-01T04:17:00.950Z,-3.90
2023-03-01T04:18:00.965Z,-3.94
2023-03-01T04:19:01.009Z,-3.97
2023-03-01T04:20:00.918Z,-4.01
2023-03-01T04:21:00.912Z,-4.01
2023-03-01T04:22:00.890Z,-4.03
2023-03-01T04:23:00.911Z,-4.07
2023-03-01T04:24:00.897Z,-4.11
2023-03-01T04:25:00.864Z,-4.12
2023-03-01T04:26:00.861Z,-4.14
2023-03-01T04:27:00.849Z,-4.17
2023-03-01T04:28:00.840Z,-4.20
2023-03-01T04:29:00.833Z,-4.24
2023-03-01T04:30:00.821Z,-4.29
2023-03-01T04:31:00.801Z,-4.36
2023-03-01T04:32:00.922Z,-4.40
2023-03-01T04:33:00.792Z,-4.40
2023-03-01T04:34:00.770Z,-4.42
2023-03-01T04:35:00.766Z,-4.46
2023-03-01T04:36:00.845Z,-4.50
2023-03-01T04:37:00.741Z,-4.53
2023-03-01T04:38:00.744Z,-4.54
2023-03-01T04:39:00.725Z,-4.56
2023-03-01T04:40:00.710Z,-4.54
2023-03-01T04:41:00.708Z,-4.54
2023-03-01T04:42:00.699Z,-4.56
2023-03-01T04:43:00.690Z,-4.54
2023-03-01T04:44:00.678Z,-4.51
2023-03-01T04:45:00.661Z,-4.53
2023-03-01T04:46:00.676Z,-4.56
2023-03-01T04:47:00.650Z,-4.57
2023-03-01T04:48:00.641Z,-4.57
2023-03-01T04:49:00.610Z,-4.54
2023-03-01T04:50:00.601Z,-4.49
2023-03-01T04:51:00.598Z,-4.50
2023-03-01T04:52:00.582Z,-4.53
2023-03-01T04:53:00.587Z,-4.57
2023-03-01T04:54:00.579Z,-4.60
2023-03-01T04:55:00.554Z,-4.63
2023-03-01T04:56:00.544Z,-4.61
2023-03-01T04:57:00.541Z,-4.58
2023-03-01T04:58:00.529Z,-4.49
2023-03-01T04:59:00.520Z,-4.42
2023-03-01T05:00:00.523Z,-4.40
2023-03-01T05:01:00.491Z,-4.40
2023-03-01T05:02:00.501Z,-4.39
2023-03-01T05:03:00.629Z,-4.38
2023-03-01T05:04:00.463Z,-4.38
2023-03-01T05:05:00.450Z,-4.39
2023-03-01T05:06:00.445Z,-4.40
2023-03-01T05:07:00.474Z,-4.42
2023-03-01T05:08:00.414Z,-4.46
2023-03-01T05:09:00.422Z,-4.50
2023-03-01T05:10:00.388Z,-4.56
2023-03-01T05:11:00.389Z,-4.60
2023-03-01T05:12:00.380Z,-4.61
2023-03-01T05:13:00.358Z,-4.58
2023-03-01T05:14:00.378Z,-4.56
2023-03-01T05:15:00.360Z,-4.54
2023-03-01T05:16:00.385Z,-4.53
2023-03-01T05:17:00.352Z,-4.54
2023-03-01T05:18:00.343Z,-4.53
2023-03-01T05:19:00.311Z,-4.53
2023-03-01T05:20:00.401Z,-4.50
2023-03-01T05:21:00.285Z,-4.50
2023-03-01T05:22:00.275Z,-4.56
2023-03-01T05:23:00.296Z,-4.63
2023-03-01T05:24:00.249Z,-4.68
2023-03-01T05:25:00.253Z,-4.74
2023-03-01T05:26:00.229Z,-4.75
2023-03-01T05:27:00.217Z,-4.79
2023-03-01T05:28:00.218Z,-4.81
2023-03-01T05:29:00.860Z,-4.83
2023-03-01T05:30:00.187Z,-4.85
2023-03-01T05:31:00.196Z,-4.89
2023-03-01T05:32:00.220Z,-4.93
2023-03-01T05:33:00.158Z,-4.97
2023-03-01T05:34:00.164Z,-5.00
2023-03-01T05:35:00.174Z,-5.04
2023-03-01T05:36:00.264Z,-5.07
2023-03-01T05:37:00.120Z,-5.10
2023-03-01T05:38:00.101Z,-5.11
2023-03-01T05:39:00.130Z,-5.14
2023-03-01T05:40:00.123Z,-5.06
2023-03-01T05:41:00.084Z,-4.96
2023-03-01T05:42:00.097Z,-4.90
2023-03-01T05:43:00.061Z,-4.85
2023-03-01T05:44:00.069Z,-4.79
2023-03-01T05:45:00.047Z,-4.79
2023-03-01T05:46:00.036Z,-4.75
2023-03-01T05:47:00.018Z,-4.78
2023-03-01T05:48:00.017Z,-4.72
2023-03-01T05:49:00.007Z,-4.69
2023-03-01T05:50:00.155Z,-4.68
2023-03-01T05:50:59.976Z,-4.74
2023-03-01T05:51:59.956Z,-4.72
2023-03-01T05:52:59.957Z,-4.68
2023-03-01T05:53:59.983Z,-4.63
2023-03-01T05:54:59.918Z,-4.61
2023-03-01T05:55:59.919Z,-4.65
2023-03-01T05:56:59.908Z,-4.69
2023-03-01T05:57:59.889Z,-4.72
2023-03-01T05:58:59.956Z,-4.74
2023-03-01T05:59:59.879Z,-4.75
2023-03-01T06:00:59.866Z,-4.75
2023-03-01T06:01:59.862Z,-4.67
2023-03-01T06:02:59.890Z,-4.65
2023-03-01T06:03:59.841Z,-4.68
2023-03-01T06:04:59.933Z,-4.68
2023-03-01T06:05:59.816Z,-4.65
2023-03-01T06:06:59.800Z,-4.65
2023-03-01T06:07:59.800Z,-4.68
2023-03-01T06:08:59.793Z,-4.67
2023-03-01T06:09:59.782Z,-4.69
2023-03-01T06:10:59.761Z,-4.71
2023-03-01T06:11:59.762Z,-4.69
2023-03-01T06:12:59.763Z,-4.72
2023-03-01T06:13:59.750Z,-4.74
2023-03-01T06:14:59.724Z,-4.74
2023-03-01T06:15:59.875Z,-4.75
2023-03-01T06:16:59.740Z,-4.71
2023-03-01T06:18:00.201Z,-4.71
2023-03-01T06:18:59.679Z,-4.74
2023-03-01T06:19:59.670Z,-4.72
2023-03-01T06:20:59.651Z,-4.74
2023-03-01T06:21:59.663Z,-4.74
2023-03-01T06:22:59.790Z,-4.67
2023-03-01T06:23:59.690Z,-4.69
2023-03-01T06:24:59.626Z,-4.72
2023-03-01T06:25:59.659Z,-4.68
2023-03-01T06:26:59.593Z,-4.65
2023-03-01T06:27:59.599Z,-4.68
2023-03-01T06:28:59.580Z,-4.68
2023-03-01T06:29:59.574Z,-4.65
2023-03-01T06:30:59.570Z,-4.69
2023-03-01T06:31:59.566Z,-4.72
2023-03-01T06:32:59.541Z,-4.77
2023-03-01T06:33:59.586Z,-4.83
2023-03-01T06:34:59.514Z,-4.89
2023-03-01T06:35:59.502Z,-4.92
2023-03-01T06:36:59.493Z,-4.96
2023-03-01T06:37:59.500Z,-4.95
2023-03-01T06:38:59.470Z,-4.89
2023-03-01T06:39:59.469Z,-4.85
2023-03-01T06:40:59.451Z,-4.78
2023-03-01T06:41:59.461Z,-4.75
2023-03-01T06:42:59.542Z,-4.77
2023-03-01T06:43:59.457Z,-4.74
2023-03-01T06:44:59.410Z,-4.74
2023-03-01T06:45:59.405Z,-4.69
2023-03-01T06:46:59.458Z,-4.60
2023-03-01T06:47:59.412Z,-4.56
2023-03-01T06:48:59.411Z,-4.51
2023-03-01T06:49:59.382Z,-4.46
2023-03-01T06:50:59.349Z,-4.46
2023-03-01T06:51:59.342Z,-4.49
2023-03-01T06:52:59.350Z,-4.51
2023-03-01T06:54:01.569Z,-4.47
2023-03-01T06:54:59.299Z,-4.50
2023-03-01T06:55:59.297Z,-4.51
2023-03-01T06:56:59.377Z,-4.43
2023-03-01T06:57:59.281Z,-4.43
2023-03-01T06:58:59.258Z,-4.43
2023-03-01T06:59:59.316Z,-4.42
2023-03-01T07:00:59.236Z,-4.49
2023-03-01T07:01:59.264Z,-4.47
2023-03-01T07:02:59.244Z,-4.50
2023-03-01T07:03:59.209Z,-4.51
2023-03-01T07:04:59.233Z,-4.53
2023-03-01T07:05:59.184Z,-4.49
2023-03-01T07:06:59.165Z,-4.43
2023-03-01T07:07:59.188Z,-4.39
2023-03-01T07:08:59.157Z,-4.40
2023-03-01T07:09:59.153Z,-4.40
2023-03-01T07:10:59.142Z,-4.39
2023-03-01T07:11:59.139Z,-4.35
2023-03-01T07:12:59.146Z,-4.29
2023-03-01T07:13:59.104Z,-4.28
2023-03-01T07:14:59.089Z,-4.28
2023-03-01T07:15:59.103Z,-4.22
2023-03-01T07:16:59.067Z,-4.20
2023-03-01T07:17:59.101Z,-4.11
2023-03-01T07:18:59.841Z,-4.01
2023-03-01T07:19:59.052Z,-3.93
2023-03-01T07:20:59.067Z,-3.86
2023-03-01T07:21:59.024Z,-3.79
2023-03-01T07:22:59.015Z,-3.69
2023-03-01T07:23:58.995Z,-3.63
2023-03-01T07:24:58.986Z,-3.57
2023-03-01T07:25:58.991Z,-3.52
2023-03-01T07:26:58.966Z,-3.46
2023-03-01T07:27:58.974Z,-3.39
2023-03-01T07:28:58.945Z,-3.33
2023-03-01T07:29:58.944Z,-3.25
2023-03-01T07:30:58.914Z,-3.20
2023-03-01T07:31:59.023Z,-3.14
2023-03-01T07:32:59.091Z,-3.10
2023-03-01T07:33:58.899Z,-3.03
2023-03-01T07:34:58.875Z,-2.97
2023-03-01T07:35:58.996Z,-2.86
2023-03-01T07:36:58.865Z,-2.79
2023-03-01T07:37:58.873Z,-2.70
2023-03-01T07:38:58.858Z,-2.63
2023-03-01T07:39:58.828Z,-2.53
2023-03-01T07:40:58.834Z,-2.46
2023-03-01T07:41:58.819Z,-2.39
2023-03-01T07:42:58.813Z,-2.30
2023-03-01T07:43:58.791Z,-2.24
2023-03-01T07:44:58.781Z,-2.18
2023-03-01T07:45:58.843Z,-2.10
2023-03-01T07:46:58.756Z,-2.08
2023-03-01T07:47:59.115Z,-2.00
2023-03-01T07:48:58.734Z,-1.97
2023-03-01T07:49:58.731Z,-1.92
2023-03-01T07:50:58.721Z,-1.90
2023-03-01T07:51:58.705Z,-1.87
2023-03-01T07:52:58.702Z,-1.87
2023-03-01T07:53:58.682Z,-1.87
2023-03-01T07:54:58.681Z,-1.82
2023-03-01T07:55:58.664Z,-1.77
2023-03-01T07:56:58.654Z,-1.73
2023-03-01T07:57:58.644Z,-1.66
2023-03-01T07:58:58.646Z,-1.59
2023-03-01T07:59:58.622Z,-1.54
2023-03-01T08:00:58.612Z,-1.52
2023-03-01T08:01:58.638Z,-1.54
2023-03-01T08:02:58.607Z,-1.54
2023-03-01T08:03:58.568Z,-1.52
2023-03-01T08:04:58.585Z,-1.51
2023-03-01T08:05:58.544Z,-1.48
2023-03-01T08:06:58.564Z,-1.46
2023-03-01T08:07:58.542Z,-1.45
2023-03-01T08:08:58.529Z,-1.41
2023-03-01T08:09:58.521Z,-1.41
2023-03-01T08:10:58.502Z,-1.41
2023-03-01T08:11:58.498Z,-1.43
2023-03-01T08:12:58.513Z,-1.45
2023-03-01T08:13:58.469Z,-1.43
2023-03-01T08:14:58.475Z,-1.41
2023-03-01T08:15:58.456Z,-1.37
2023-03-01T08:16:58.482Z,-1.31
2023-03-01T08:17:58.435Z,-1.28
2023-03-01T08:18:58.420Z,-1.25
2023-03-01T08:19:58.408Z,-1.20
2023-03-01T08:20:58.402Z,-1.19
2023-03-01T08:21:58.377Z,-1.17
2023-03-01T08:22:58.396Z,-1.17
2023-03-01T08:23:58.361Z,-1.15
2023-03-01T08:24:58.362Z,-1.10
2023-03-01T08:25:58.339Z,-1.04
2023-03-01T08:26:58.340Z,-0.95
2023-03-01T08:27:58.311Z,-0.94
2023-03-01T08:28:58.322Z,-0.94
2023-03-01T08:29:58.309Z,-0.95
2023-03-01T08:30:58.307Z,-0.94
2023-03-01T08:31:58.359Z,-0.91
2023-03-01T08:32:58.407Z,-0.91
2023-03-01T08:33:58.262Z,-0.91
2023-03-01T08:34:58.242Z,-0.85
2023-03-01T08:35:58.256Z,-0.83
2023-03-01T08:36:58.218Z,-0.83
2023-03-01T08:37:58.204Z,-0.76
2023-03-01T08:38:58.233Z,-0.73
2023-03-01T08:39:58.208Z,-0.72
2023-03-01T08:40:58.181Z,-0.70
2023-03-01T08:41:58.163Z,-0.72
2023-03-01T08:42:58.156Z,-0.75
2023-03-01T08:43:58.180Z,-0.73
2023-03-01T08:44:58.133Z,-0.73
2023-03-01T08:45:58.152Z,-0.73
2023-03-01T08:46:58.150Z,-0.72
2023-03-01T08:47:58.103Z,-0.69
2023-03-01T08:48:58.100Z,-0.69
2023-03-01T08:49:58.084Z,-0.65
2023-03-01T08:50:58.121Z,-0.64
2023-03-01T08:51:58.080Z,-0.61
2023-03-01T08:52:58.042Z,-0.58
2023-03-01T08:53:58.071Z,-0.54
2023-03-01T08:54:58.022Z,-0.47
2023-03-01T08:55:58.023Z,-0.46
2023-03-01T08:56:58.005Z,-0.42
2023-03-01T08:57:57.994Z,-0.37
2023-03-01T08:58:58.013Z,-0.26
2023-03-01T08:59:57.983Z,-0.22
2023-03-01T09:00:57.965Z,-0.14
2023-03-01T09:01:57.995Z,-0.07
2023-03-01T09:02:57.943Z,-0.05
2023-03-01T09:03:58.005Z,-0.01
2023-03-01T09:04:57.915Z,0.02
2023-03-01T09:05:57.926Z,0.08
2023-03-01T09:06:57.894Z,0.13
2023-03-01T09:07:57.928Z,0.13
2023-03-01T09:08:57.910Z,0.13
2023-03-01T09:09:57.877Z,0.15
2023-03-01T09:10:57.870Z,0.17
2023-03-01T09:11:57.854Z,0.18
2023-03-01T09:12:57.839Z,0.21
2023-03-01T09:13:57.887Z,0.24
2023-03-01T09:14:57.815Z,0.24
2023-03-01T09:15:57.809Z,0.32
2023-03-01T09:16:57.847Z,0.41
2023-03-01T09:17:57.832Z,0.46
2023-03-01T09:18:57.778Z,0.55
2023-03-01T09:19:57.782Z,0.58
2023-03-01T09:20:57.756Z,0.57
2023-03-01T09:21:57.749Z,0.62
2023-03-01T09:22:57.751Z,0.66
2023-03-01T09:23:57.748Z,0.70
2023-03-01T09:24:57.716Z,0.78
2023-03-01T09:25:57.748Z,0.84
2023-03-01T09:26:57.714Z,0.93
2023-03-01T09:27:57.677Z,0.97
2023-03-01T09:28:57.687Z,1.04
2023-03-01T09:29:57.683Z,1.11
2023-03-01T09:30:58.492Z,1.15
2023-03-01T09:31:57.713Z,1.20
2023-03-01T09:32:57.642Z,1.27
2023-03-01T09:33:57.630Z,1.32
2023-03-01T09:34:57.598Z,1.41
2023-03-01T09:35:57.608Z,1.45
2023-03-01T09:36:57.582Z,1.47
2023-03-01T09:37:57.578Z,1.50
2023-03-01T09:38:57.589Z,1.55
2023-03-01T09:39:57.590Z,1.58
2023-03-01T09:40:57.664Z,1.59
2023-03-01T09:41:57.540Z,1.58
2023-03-01T09:42:57.518Z,1.63
2023-03-01T09:43:57.520Z,1.66
2023-03-01T09:44:57.499Z,1.69
2023-03-01T09:45:57.499Z,1.73
2023-03-01T09:46:57.500Z,1.76
2023-03-01T09:47:57.472Z,1.81
2023-03-01T09:48:57.491Z,1.88
2023-03-01T09:49:57.460Z,1.98
2023-03-01T09:50:57.432Z,2.06
2023-03-01T09:51:57.453Z,2.16
2023-03-01T09:52:57.410Z,2.17
2023-03-01T09:53:57.458Z,2.24
2023-03-01T09:54:59.643Z,2.36
2023-03-01T09:55:57.382Z,2.41
2023-03-01T09:56:57.377Z,2.46
2023-03-01T09:57:57.424Z,2.52
2023-03-01T09:58:57.381Z,2.61
2023-03-01T09:59:57.342Z,2.71
2023-03-01T10:00:57.325Z,2.78
2023-03-01T10:01:57.349Z,2.90
2023-03-01T10:02:57.352Z,3.02
2023-03-01T10:03:57.361Z,3.14
2023-03-01T10:04:57.334Z,3.23
2023-03-01T10:05:57.273Z,3.40
2023-03-01T10:06:57.254Z,3.51
2023-03-01T10:07:57.257Z,3.60
2023-03-01T10:08:57.265Z,3.65
2023-03-01T10:09:57.236Z,3.68
2023-03-01T10:10:57.232Z,3.65
2023-03-01T10:11:57.206Z,3.68
2023-03-01T10:12:57.203Z,3.75
2023-03-01T10:13:57.199Z,3.87
2023-03-01T10:14:57.178Z,3.97
2023-03-01T10:15:57.308Z,4.06
2023-03-01T10:16:57.162Z,4.12
2023-03-01T10:17:57.148Z,4.12
2023-03-01T10:18:57.139Z,4.18
2023-03-01T10:19:57.185Z,4.18
2023-03-01T10:20:57.119Z,4.24
2023-03-01T10:21:57.099Z,4.34
2023-03-01T10:22:57.102Z,4.42
2023-03-01T10:23:57.107Z,4.51
2023-03-01T10:24:57.070Z,4.59
2023-03-01T10:25:57.063Z,4.67
2023-03-01T10:26:57.042Z,4.72
2023-03-01T10:27:57.037Z,4.75
2023-03-01T10:28:57.063Z,4.75
2023-03-01T10:29:57.012Z,4.77
2023-03-01T10:30:57.016Z,4.80
2023-03-01T10:31:57.015Z,4.86
2023-03-01T10:32:57.007Z,4.92
2023-03-01T10:33:56.968Z,4.96
2023-03-01T10:34:56.954Z,5.00
2023-03-01T10:35:56.988Z,5.07
2023-03-01T10:36:56.940Z,5.07
2023-03-01T10:37:56.926Z,5.10
2023-03-01T10:38:56.924Z,5.20
2023-03-01T10:39:56.900Z,5.13
2023-03-01T10:40:56.886Z,5.24
2023-03-01T10:41:56.885Z,5.35
2023-03-01T10:42:56.857Z,5.39
2023-03-01T10:43:56.870Z,5.46
2023-03-01T10:44:56.840Z,5.53
2023-03-01T10:45:56.863Z,5.53
2023-03-01T10:46:56.819Z,5.57
2023-03-01T10:47:56.810Z,5.67
2023-03-01T10:48:56.814Z,5.72
2023-03-01T10:49:56.792Z,5.85
2023-03-01T10:50:56.802Z,5.96
2023-03-01T10:51:56.775Z,6.01
2023-03-01T10:52:56.754Z,6.11
2023-03-01T10:53:56.770Z,6.18
2023-03-01T10:54:56.735Z,6.31
2023-03-01T10:55:56.733Z,6.37
2023-03-01T10:56:56.714Z,6.41
2023-03-01T10:57:56.721Z,6.48
2023-03-01T10:58:56.704Z,6.48
2023-03-01T10:59:56.685Z,6.48
2023-03-01T11:00:56.670Z,6.49
2023-03-01T11:01:56.732Z,6.49
2023-03-01T11:02:56.647Z,6.52
2023-03-01T11:03:56.656Z,6.55
2023-03-01T11:04:56.686Z,6.58
2023-03-01T11:05:56.628Z,6.69
2023-03-01T11:06:56.602Z,6.81
2023-03-01T11:07:56.600Z,6.84
2023-03-01T11:08:56.598Z,6.88
2023-03-01T11:09:56.580Z,6.94
2023-03-01T11:10:56.561Z,6.99
2023-03-01T11:11:56.569Z,6.99
2023-03-01T11:12:56.540Z,7.06
2023-03-01T11:13:56.568Z,7.03
2023-03-01T11:14:56.541Z,7.03
2023-03-01T11:15:56.532Z,7.12
2023-03-01T11:16:56.495Z,7.16
2023-03-01T11:18:03.117Z,7.21
2023-03-01T11:18:57.486Z,7.13
2023-03-01T11:20:02.538Z,7.17
2023-03-01T11:20:57.449Z,7.13
2023-03-01T11:21:56.491Z,7.13
2023-03-01T11:22:56.439Z,7.02
2023-03-01T11:23:56.461Z,7.02
2023-03-01T11:25:08.875Z,6.97
2023-03-01T11:25:57.398Z,6.99
2023-03-01T11:26:56.396Z,7.12
2023-03-01T11:27:56.404Z,7.17
2023-03-01T11:28:56.571Z,7.13
2023-03-01T11:29:56.374Z,7.07
2023-03-01T11:31:07.662Z,7.10
2023-03-01T11:31:58.114Z,7.25
2023-03-01T11:32:56.426Z,7.25
2023-03-01T11:33:56.350Z,7.23
2023-03-01T11:34:56.313Z,7.31
2023-03-01T11:35:56.347Z,7.45
2023-03-01T11:36:56.325Z,7.45
2023-03-01T11:37:56.287Z,7.30
2023-03-01T11:38:56.571Z,7.43
2023-03-01T11:39:56.254Z,7.53
2023-03-01T11:40:56.279Z,7.53
2023-03-01T11:41:58.135Z,7.55
2023-03-01T11:42:56.238Z,7.64
2023-03-01T11:43:56.261Z,7.68
2023-03-01T11:44:56.222Z,7.72
2023-03-01T11:45:56.186Z,7.77
2023-03-01T11:46:56.330Z,7.86
2023-03-01T11:47:56.175Z,7.92
2023-03-01T11:48:56.160Z,7.87
2023-03-01T11:49:56.140Z,7.90
2023-03-01T11:50:56.144Z,7.92
2023-03-01T11:51:56.116Z,8.05
2023-03-01T11:52:56.119Z,8.16
2023-03-01T11:53:56.139Z,8.05
2023-03-01T11:54:56.093Z,8.15
2023-03-01T11:55:56.148Z,8.20
2023-03-01T11:56:56.122Z,8.34
2023-03-01T11:57:56.063Z,8.34
2023-03-01T11:58:56.175Z,8.38
2023-03-01T11:59:56.037Z,8.45
2023-03-01T12:00:56.033Z,8.44
2023-03-01T12:01:56.073Z,8.48
2023-03-01T12:02:56.017Z,8.44
2023-03-01T12:03:56.067Z,8.38
2023-03-01T12:04:55.989Z,8.48
2023-03-01T12:05:55.998Z,8.41
2023-03-01T12:06:57.543Z,8.37
2023-03-01T12:07:55.957Z,8.40
2023-03-01T12:08:55.980Z,8.36
2023-03-01T12:09:55.938Z,8.40
2023-03-01T12:10:55.929Z,8.38
2023-03-01T12:11:55.931Z,8.34
2023-03-01T12:12:55.902Z,8.36
2023-03-01T12:13:55.996Z,8.30
2023-03-01T12:14:55.882Z,8.45
2023-03-01T12:15:55.889Z,8.45
2023-03-01T12:16:55.876Z,8.34
2023-03-01T12:17:55.863Z,8.48
2023-03-01T12:18:55.878Z,8.58
2023-03-01T12:19:55.839Z,8.43
2023-03-01T12:20:55.832Z,8.40
2023-03-01T12:21:55.819Z,8.41
2023-03-01T12:22:55.835Z,8.41
2023-03-01T12:23:55.818Z,8.47
2023-03-01T12:24:55.785Z,8.62
2023-03-01T12:25:55.777Z,8.66
2023-03-01T12:26:55.774Z,8.61
2023-03-01T12:27:55.753Z,8.68
2023-03-01T12:28:55.746Z,8.79
2023-03-01T12:29:55.750Z,8.83
2023-03-01T12:30:55.716Z,8.70
2023-03-01T12:31:55.805Z,8.62
2023-03-01T12:32:55.740Z,8.65
2023-03-01T12:33:55.704Z,8.68
2023-03-01T12:34:55.673Z,8.70
2023-03-01T12:35:55.696Z,8.80
2023-03-01T12:36:55.651Z,8.87
2023-03-01T12:37:55.651Z,8.92
2023-03-01T12:38:55.664Z,8.87
2023-03-01T12:39:55.625Z,8.92
2023-03-01T12:40:55.622Z,8.99
2023-03-01T12:41:55.617Z,9.14
2023-03-01T12:42:55.586Z,9.32
2023-03-01T12:43:55.598Z,9.28
2023-03-01T12:44:55.579Z,9.26
2023-03-01T12:45:55.598Z,9.24
2023-03-01T12:46:55.558Z,9.33
2023-03-01T12:47:55.549Z,9.28
2023-03-01T12:48:55.534Z,9.23
2023-03-01T12:49:55.548Z,9.31
2023-03-01T12:50:55.523Z,9.33
2023-03-01T12:51:57.450Z,9.31
2023-03-01T12:52:55.490Z,9.32
2023-03-01T12:53:55.497Z,9.40
2023-03-01T12:54:55.465Z,9.35
2023-03-01T12:55:55.460Z,9.42
2023-03-01T12:56:55.453Z,9.46
2023-03-01T12:57:55.442Z,9.54
2023-03-01T12:58:58.647Z,9.47
2023-03-01T12:59:55.414Z,9.43